Bookmark and Share
Track history (hours):
 

Paula Ruble

More information available from US FCC via Universal Licensing System and Coast Guard Vessel Documentation Center.

Last reported at 2014-Mar-12 11:20 UTC. Time now 2014-Apr-20 08:48 UTC.
Position N 38°57' W 084°51'.
Warning: this ship's position is 38 days out of date.

Length 42 m.

Type: Tow > 200 m length. MMSI: 367426860.

NotesDate/timePositionNaut miles runAvg speedWind from/ knotsBaromVisibWave heightAir tempDewpointWater temp
2014-Mar-12 11:20N 38°57' W 084°51'6 5.8
2014-Mar-12 10:14N 39°03' W 084°53'5 6.1
2014-Mar-12 09:24N 39°06' W 084°49'5 5.6
2014-Mar-12 08:34N 39°08' W 084°43'7 6.5
2014-Mar-12 07:33N 39°04' W 084°36'38 2.2
2014-Mar-11 14:27N 38°46' W 083°54'7 3.6
2014-Mar-11 12:31N 38°46' W 084°03'4 4.2
2014-Mar-11 11:32N 38°47' W 084°08'2 2.2
2014-Mar-11 10:33N 38°48' W 084°11'2 1.8
2014-Mar-11 09:30N 38°48' W 084°13'2 2.4
2014-Mar-11 08:33N 38°51' W 084°14'3 3.4
2014-Mar-11 07:33N 38°54' W 084°15'3 3.5
2014-Mar-11 06:33N 38°57' W 084°17'3 3.5
2014-Mar-11 05:33N 39°00' W 084°18'3 3.4
2014-Mar-11 04:33N 39°02' W 084°22'3 3.4
2014-Mar-11 03:33N 39°03' W 084°26'4 3.5
2014-Mar-11 02:33N 39°07' W 084°27'3 2.6
2014-Mar-11 01:33N 39°06' W 084°30'3 2.8
2014-Mar-11 00:32N 39°05' W 084°34'1 1.1
2014-Mar-10 23:33N 39°05' W 084°35'3 3.2
2014-Mar-10 22:33N 39°05' W 084°39'3 3.4
2014-Mar-10 21:33N 39°07' W 084°42'3 3.0
2014-Mar-10 20:33N 39°08' W 084°46'  
2014-Mar-06 12:31N 39°03' W 084°53'7 5.8
2014-Mar-06 11:23N 39°07' W 084°47'4 4.5
2014-Mar-06 10:33N 39°07' W 084°42'6 6.0
2014-Mar-06 09:33N 39°05' W 084°35'3 2.9
2014-Mar-06 08:33N 39°05' W 084°32'4 4.3
2014-Mar-06 07:33N 39°05' W 084°26'6 5.9
2014-Mar-06 06:33N 39°01' W 084°20'6 6.5
2014-Mar-06 05:33N 38°56' W 084°16'4 3.5
2014-Mar-06 04:32N 38°53' W 084°14'0 0.0
2014-Mar-06 03:32N 38°52' W 084°14'0 0.3
2014-Mar-06 02:31N 38°52' W 084°14'0 0.3
2014-Mar-06 01:32N 38°52' W 084°14'3 2.9
2014-Mar-06 00:32N 38°50' W 084°14'21 1.9
2014-Mar-05 13:30N 38°42' W 083°49'2 1.3
2014-Mar-05 12:18N 38°42' W 083°47'  

Dump ship's entire track history

sailing weather and tide predictions

Paula Ruble — WDF2276 — position and weather